Home > Products > Valid Products > MTR

000
SAUS41 KCAR 031720
MTR40B
METAR K40B 031720Z AUTO VRB04KT 21/07 A2984 RMK AO1 SLP104
     T02080070 52003





000
SAUS41 KCAR 031658
MTRGNR
METAR KGNR 031656Z AUTO VRB06G17KT 20/06 A2987 RMK AO1 SLP116
T02000056





000
SAUS41 KCAR 031616
MTR40B
METAR K40B 031616Z AUTO VRB05G22KT 20/06 A2984 RMK AO1 SLP105
     T01960056 52003





000
SAUS41 KCAR 031616
MTR40B
METAR K40B 031616Z AUTO VRB05G22KT 20/06 A2984 RMK AO1 SLP105
     T01960056 52003





000
SAUS41 KCAR 031557
MTRGNR
METAR KGNR 031556Z AUTO 31009G22KT 240V020 20/04 A2987 RMK AO1
SLP115 T02000039





000
SAUS41 KCAR 031520
MTR40B
METAR K40B 031520Z AUTO 23006G17KT 130V310 20/05 A2983 RMK AO1
     SLP106 T01970045 54001





000
SAUS41 KCAR 031458
MTRGNR
METAR KGNR 031456Z AUTO VRB04KT 20/06 A2987 RMK AO1 SLP115 T02000061
58002





000
SAUS41 KCAR 031420
MTR40B
METAR K40B 031420Z AUTO VRB04G14KT 18/08 A2983 RMK AO1 SLP105
     T01800085 51004





000
SAUS41 KCAR 031358
MTRGNR
METAR KGNR 031356Z AUTO VRB05KT 19/08 A2987 RMK AO1 SLP116 T01890078





000
SAUS41 KCAR 031358
MTRGNR
METAR KGNR 031356Z AUTO VRB05KT 19/08 A2987 RMK AO1 SLP116 T01890078





000
SAUS41 KCAR 031316
MTR40B
METAR K40B 031316Z AUTO VRB03G12KT 18/08 A2983 RMK AO1 SLP105
     T01780080 52003





000
SAUS41 KCAR 031257
MTRGNR
METAR KGNR 031256Z AUTO VRB03KT 17/08 A2988 RMK AO1 SLP120 T01670078





000
SAUS41 KCAR 031257
MTRGNR
METAR KGNR 031256Z AUTO VRB03KT 17/08 A2988 RMK AO1 SLP120 T01670078





000
SAUS41 KCAR 031220
MTR40B
METAR K40B 031220Z AUTO VRB06G12KT 16/08 A2983 RMK AO1 SLP105
     T01550082 10155 20081 52005 70000





000
SAUS41 KCAR 031220
MTR40B
METAR K40B 031220Z AUTO VRB06G12KT 16/08 A2983 RMK AO1 SLP105
     T01550082 10155 20081 52005 70000





000
SAUS41 KCAR 031157
MTRGNR
METAR KGNR 031156Z AUTO VRB03KT 15/09 A2988 RMK AO1 SLP118 T01500089
10150 20094 51005





000
SAUS41 KCAR 031157
MTRGNR
METAR KGNR 031156Z AUTO VRB03KT 15/09 A2988 RMK AO1 SLP118 T01500089
10150 20094 51005





000
SAUS41 KCAR 031121
MTR40B
METAR K40B 031121Z AUTO VRB02KT 12/08 A2982 RMK AO1 SLP102
     T01220083 52003





000
SAUS41 KCAR 031058
MTRGNR
METAR KGNR 031056Z AUTO 00000KT 13/08 A2987 RMK AO1 SLP116 T01280083





000
SAUS41 KCAR 031058
MTRGNR
METAR KGNR 031056Z AUTO 00000KT 13/08 A2987 RMK AO1 SLP116 T01280083





000
SAUS41 KCAR 031016
MTR40B
METAR K40B 031016Z AUTO 00000KT 11/09 A2982 RMK AO1 SLP102
     T01090088 52003





000
SAUS41 KCAR 030957
MTRGNR
METAR KGNR 030956Z AUTO 00000KT 11/08 A2987 RMK AO1 SLP117 T01110083





000
SAUS41 KCAR 030957
MTRGNR
METAR KGNR 030956Z AUTO 00000KT 11/08 A2987 RMK AO1 SLP117 T01110083





000
SAUS41 KCAR 030920
MTR40B
METAR K40B 030920Z AUTO VRB04KT 10/07 A2981 RMK AO1 SLP098
     T00950071 57003





000
SAUS41 KCAR 030858
MTRGNR
METAR KGNR 030856Z AUTO 00000KT 11/08 A2986 RMK AO1 SLP113 T01060078
55001





000
SAUS41 KCAR 030858
MTRGNR
METAR KGNR 030856Z AUTO 00000KT 11/08 A2986 RMK AO1 SLP113 T01060078
55001





000
SAUS41 KCAR 030821
MTR40B
METAR K40B 030821Z AUTO VRB05G11KT 09/07 A2981 RMK AO1 SLP097
     T00930070 57006





000
SAUS41 KCAR 030821
MTR40B
METAR K40B 030821Z AUTO VRB05G11KT 09/07 A2981 RMK AO1 SLP097
     T00930070 57006





000
SAUS41 KCAR 030757
MTRGNR
METAR KGNR 030756Z AUTO 00000KT 09/07 A2986 RMK AO1 SLP112 T00940072





000
SAUS41 KCAR 030716
MTR40B
METAR K40B 030716Z AUTO 00000KT 08/07 A2981 RMK AO1 SLP097
     T00830070 58006





000
SAUS41 KCAR 030657
MTRGNR
METAR KGNR 030656Z AUTO 00000KT 10/07 A2986 RMK AO1 SLP112 T01000072





000
SAUS41 KCAR 030620
MTR40B
METAR K40B 030620Z AUTO VRB03KT 09/07 A2982 RMK AO1 SLP099
     T00860074 10143 20072 58002 60000





000
SAUS41 KCAR 030620
MTR40B
METAR K40B 030620Z AUTO VRB03KT 09/07 A2982 RMK AO1 SLP099
     T00860074 10143 20072 58002 60000





000
SAUS41 KCAR 030557
MTRGNR
METAR KGNR 030556Z AUTO 00000KT 11/08 A2986 RMK AO1 SLP113 T01060078
10161 20106 58002





000
SAUS41 KCAR 030557
MTRGNR
METAR KGNR 030556Z AUTO 00000KT 11/08 A2986 RMK AO1 SLP113 T01060078
10161 20106 58002





000
SAUS41 KCAR 030520
MTR40B
METAR K40B 030520Z AUTO 00000KT 08/07 A2983 RMK AO1 SLP101
     T00770070 401700075 54001





000
SAUS41 KCAR 030458
MTRGNR
METAR KGNR 030456Z AUTO 00000KT 12/07 A2987 RMK AO1 SLP115 T01170072
402170111





000
SAUS41 KCAR 030458
MTRGNR
METAR KGNR 030456Z AUTO 00000KT 12/07 A2987 RMK AO1 SLP115 T01170072
402170111





000
SAUS41 KCAR 030416
MTR40B
METAR K40B 030416Z AUTO 00000KT 08/07 A2983 RMK AO1 SLP101
     T00800073 54000





000
SAUS41 KCAR 030416
MTR40B
METAR K40B 030416Z AUTO 00000KT 08/07 A2983 RMK AO1 SLP101
     T00800073 54000





000
SAUS41 KCAR 030357
MTRGNR
METAR KGNR 030356Z AUTO 00000KT 12/09 A2987 RMK AO1 SLP118 T01170089





000
SAUS41 KCAR 030321
MTR40B
METAR K40B 030321Z AUTO 00000KT 11/07 A2983 RMK AO1 SLP099
     T01080073 50005 P0000 60000





000
SAUS41 KCAR 030258
MTRGNR
METAR KGNR 030256Z AUTO 32006KT 14/09 A2987 RMK AO1 SLP115 T01390089
52010





000
SAUS41 KCAR 030220
MTR40B
METAR K40B 030220Z AUTO VRB03KT 12/08 A2983 RMK AO1 SLP099
     T01150081 50008





000
SAUS41 KCAR 030157
MTRGNR
METAR KGNR 030156Z AUTO 29003KT 16/08 A2986 RMK AO1 SLP112 T01560078





000
SAUS41 KCAR 030157
MTRGNR
METAR KGNR 030156Z AUTO 29003KT 16/08 A2986 RMK AO1 SLP112 T01560078





000
SAUS41 KCAR 030116
MTR40B
METAR K40B 030116Z AUTO VRB03KT 13/09 A2983 RMK AO1 SLP099
     T01270087 51017





000
SAUS41 KCAR 030116
MTR40B
METAR K40B 030116Z AUTO VRB03KT 13/09 A2983 RMK AO1 SLP099
     T01270087 51017





000
SAUS41 KCAR 030058
MTRGNR
METAR KGNR 030056Z AUTO 00000KT 15/08 A2985 RMK AO1 SLP108 T01500083





000
SAUS41 KCAR 030058
MTRGNR
METAR KGNR 030056Z AUTO 00000KT 15/08 A2985 RMK AO1 SLP108 T01500083





000
SAUS41 KCAR 030020
MTR40B
METAR K40B 030020Z AUTO VRB03G11KT 14/09 A2981 RMK AO1 SLP094
     T01430089 10170 20142 53013





000
SAUS41 KCAR 030020
MTR40B
METAR K40B 030020Z AUTO VRB03G11KT 14/09 A2981 RMK AO1 SLP094
     T01430089 10170 20142 53013





000
SAUS41 KCAR 022357
MTRGNR
METAR KGNR 022356Z AUTO 00000KT 16/09 A2984 RMK AO1 SLP105 T01610089
10217 20161 53009





000
SAUS41 KCAR 022320
MTR40B
METAR K40B 022320Z AUTO VRB04KT 16/11 A2980 RMK AO1 SLP090
     T01630111 53009





000
SAUS41 KCAR 022257
MTRGNR
METAR KGNR 022256Z AUTO VRB03KT 18/08 A2983 RMK AO1 SLP102 T01780078





000
SAUS41 KCAR 022257
MTRGNR
METAR KGNR 022256Z AUTO VRB03KT 18/08 A2983 RMK AO1 SLP102 T01780078





000
SAUS41 KCAR 022216
MTR40B
METAR K40B 022216Z AUTO VRB04G11KT 16/11 A2978 RMK AO1 SLP082
     T01610108 54001





000
SAUS41 KCAR 022157
MTRGNR
METAR KGNR 022156Z AUTO VRB03KT 18/08 A2982 RMK AO1 SLP097 T01830083





000
SAUS41 KCAR 022120
MTR40B
METAR K40B 022120Z AUTO VRB06G15KT 16/11 A2977 RMK AO1 SLP082
     T01630108 51003





000
SAUS41 KCAR 022057
MTRGNR
METAR KGNR 022056Z AUTO VRB03KT 18/08 A2981 RMK AO1 SLP095 T01830078
53010





000
SAUS41 KCAR 022019
MTR40B
METAR K40B 022019Z AUTO VRB06G17KT 16/11 A2977 RMK AO1 SLP082
     T01620110 51012





000
SAUS41 KCAR 021957
MTRGNR
METAR KGNR 021956Z AUTO VRB03KT 21/08 A2980 RMK AO1 SLP091 T02060083





000
SAUS41 KCAR 021957
MTRGNR
METAR KGNR 021956Z AUTO VRB03KT 21/08 A2980 RMK AO1 SLP091 T02060083





000
SAUS41 KCAR 021916
MTR40B
METAR K40B 021916Z AUTO 21008G24KT 110V340 15/10 A2977 RMK AO1 PK
     WND 22027/1854 SLP082 T01510105 51017





000
SAUS41 KCAR 021916
MTR40B
METAR K40B 021916Z AUTO 21008G24KT 110V340 15/10 A2977 RMK AO1 PK
     WND 22027/1854 SLP082 T01510105 51017





000
SAUS41 KCAR 021857
MTRGNR
METAR KGNR 021856Z AUTO VRB03KT 20/09 A2979 RMK AO1 SLP086 T02000089





000
SAUS41 KCAR 021819
MTR40B
METAR K40B 021819Z AUTO 20009G20KT 160V270 14/11 A2976 RMK AO1
     SLP078 T01430106 10151 20125 52019





000
SAUS41 KCAR 021819
MTR40B
METAR K40B 021819Z AUTO 20009G20KT 160V270 14/11 A2976 RMK AO1
     SLP078 T01430106 10151 20125 52019





000
SAUS41 KCAR 021758
MTRGNR
METAR KGNR 021756Z AUTO VRB03KT 21/09 A2978 RMK AO1 SLP083 T02060094
10206 20150 51004





000
SAUS41 KCAR 021758
MTRGNR
METAR KGNR 021756Z AUTO VRB03KT 21/09 A2978 RMK AO1 SLP083 T02060094
10206 20150 51004





000
SAUS41 KCAR 021719
MTR40B
METAR K40B 021719Z AUTO 21011G21KT 160V240 14/10 A2974 RMK AO1
     SLP071 T01450103 51018





000
SAUS41 KCAR 021719
MTR40B
METAR K40B 021719Z AUTO 21011G21KT 160V240 14/10 A2974 RMK AO1
     SLP071 T01450103 51018





000
SAUS41 KCAR 021657
MTRGNR
METAR KGNR 021656Z AUTO VRB04KT 19/10 A2978 RMK AO1 SLP083 T01940100





000
SAUS41 KCAR 021657
MTRGNR
METAR KGNR 021656Z AUTO VRB04KT 19/10 A2978 RMK AO1 SLP083 T01940100





000
SAUS41 KCAR 021616
MTR40B
METAR K40B 021616Z AUTO 20011G20KT 160V290 14/10 A2972 RMK AO1
     SLP062 T01420102 52011





000
SAUS41 KCAR 021616
MTR40B
METAR K40B 021616Z AUTO 20011G20KT 160V290 14/10 A2972 RMK AO1
     SLP062 T01420102 52011





000
SAUS41 KCAR 021558
MTRGNR
METAR KGNR 021556Z AUTO VRB03KT 18/09 A2978 RMK AO1 SLP083 T01830094





000
SAUS41 KCAR 021519
MTR40B
METAR K40B 021519Z AUTO 21010G17KT 170V270 14/10 A2971 RMK AO1
     SLP059 T01400099 52008





000
SAUS41 KCAR 021457
MTRGNR
METAR KGNR 021456Z AUTO 00000KT 17/11 A2977 RMK AO1 SLP081 T01720106
53009





000
SAUS41 KCAR 021416
MTR40B
METAR K40B 021416Z AUTO 20010G20KT 060V260 14/10 A2969 RMK AO1
     SLP053 T01400104 51008





000
SAUS41 KCAR 021358
MTRGNR
METAR KGNR 021356Z AUTO 28003KT 17/10 A2975 RMK AO1 SLP074 T01670100





000
SAUS41 KCAR 021257
MTRGNR
METAR KGNR 021256Z AUTO 16/11 A2975 RMK AO1 SLP075 T01560106





000
SAUS41 KCAR 021257
MTRGNR
METAR KGNR 021256Z AUTO 16/11 A2975 RMK AO1 SLP075 T01560106





000
SAUS41 KCAR 021224
MTR40B
METAR K40B 021224Z AUTO VRB06G19KT 13/11 A2968 RMK AO1 SLP050
     T01260107 10164 20127 52013 70051





000
SAUS41 KCAR 021157
MTRGNR
METAR KGNR 021156Z AUTO 00000KT 15/11 A2974 RMK AO1 SLP073 70042
T01500106 10150 20128 52014





000
SAUS41 KCAR 021157
MTRGNR
METAR KGNR 021156Z AUTO 00000KT 15/11 A2974 RMK AO1 SLP073 70042
T01500106 10150 20128 52014





000
SAUS41 KCAR 021128
MTR40B
METAR K40B 021128Z AUTO 22007G22KT 080V350 13/11 A2967 RMK AO1
     SLP045 T01300114 52014





000
SAUS41 KCAR 021058
MTRGNR
METAR KGNR 021056Z AUTO 00000KT 13/11 A2973 RMK AO1 SLP070 T01330106





000
SAUS41 KCAR 021058
MTRGNR
METAR KGNR 021056Z AUTO 00000KT 13/11 A2973 RMK AO1 SLP070 T01330106





000
SAUS41 KCAR 021016
MTR40B
METAR K40B 021016Z AUTO 22006G15KT 160V330 13/12 A2965 RMK AO1
     SLP040 T01320118 51016





000
SAUS41 KCAR 021016
MTR40B
METAR K40B 021016Z AUTO 22006G15KT 160V330 13/12 A2965 RMK AO1
     SLP040 T01320118 51016





000
SAUS41 KCAR 020957
MTRGNR
METAR KGNR 020956Z AUTO 00000KT 13/12 A2971 RMK AO1 SLP063 T01330122





000
SAUS41 KCAR 020957
MTRGNR
METAR KGNR 020956Z AUTO 00000KT 13/12 A2971 RMK AO1 SLP063 T01330122





000
SAUS41 KCAR 020924
MTR40B
METAR K40B 020924Z AUTO VRB06G19KT 13/12 A2964 RMK AO1 SLP036
     T01340125 52014





000
SAUS41 KCAR 020857
MTRGNR
METAR KGNR 020856Z AUTO 13/12 A2970 RMK AO1 SLP060 T01280117 53005





000
SAUS41 KCAR 020857
MTRGNR
METAR KGNR 020856Z AUTO 13/12 A2970 RMK AO1 SLP060 T01280117 53005





000
SAUS41 KCAR 020828
MTR40B
METAR K40B 020828Z AUTO 20008G18KT 170V240 14/13 A2963 RMK AO1 PK
     WND 18026/0740 SLP031 T01430130 53007





000
SAUS41 KCAR 020757
MTRGNR
METAR KGNR 020756Z AUTO VRB03KT 14/11 A2969 RMK AO1 SLP054 T01390111





000
SAUS41 KCAR 020757
MTRGNR
METAR KGNR 020756Z AUTO VRB03KT 14/11 A2969 RMK AO1 SLP054 T01390111





000
SAUS41 KCAR 020716
MTR40B
METAR K40B 020716Z AUTO 20012G25KT 180V260 15/13 A2960 RMK AO1 PK
     WND 20029/0653 SLP022 T01500129 55004





000
SAUS41 KCAR 020658
MTRGNR
METAR KGNR 020656Z AUTO 00000KT 14/14 A2969 RMK AO1 SLP054 T01440139





000
SAUS41 KCAR 020557
MTRGNR
METAR KGNR 020556Z AUTO 00000KT 15/15 A2968 RMK AO1 SLP052 T01500150
10150 20144 53002





000
SAUS41 KCAR 020520
MTR40B
METAR K40B 020520Z AUTO 18008KT 16/15 A2961 RMK AO1 SLP022
     T01580149 401750146 57011 P0007





000
SAUS41 KCAR 020458
MTRGNR
METAR KGNR 020456Z AUTO 19003KT 15/15 A2968 RMK AO1 SLP049 T01500150
401670139





000
SAUS41 KCAR 020416
MTR40B
METAR K40B 020416Z AUTO 17007G16KT 120V180 16/15 A2962 RMK AO1
     SLP026 T01560150 56012





000
SAUS41 KCAR 020416
MTR40B
METAR K40B 020416Z AUTO 17007G16KT 120V180 16/15 A2962 RMK AO1
     SLP026 T01560150 56012





000
SAUS41 KCAR 020357
MTRGNR
METAR KGNR 020356Z AUTO 18005KT 15/15 A2967 RMK AO1 SLP046 T01500150





000
SAUS41 KCAR 020320
MTR40B
METAR K40B 020320Z AUTO 16008KT 15/15 A2962 RMK AO1 SLP028
     T01550148 58012 60001





000
SAUS41 KCAR 020257
MTRGNR
METAR KGNR 020256Z AUTO 00000KT 15/15 A2968 RMK AO1 SLP050 T01500150
58002





000
SAUS41 KCAR 020221
MTR40B
METAR K40B 020221Z AUTO VRB05KT 15/15 A2964 RMK AO1 SLP033
     T01540147 57011





000
SAUS41 KCAR 020157
MTRGNR
METAR KGNR 020156Z AUTO 18005KT 15/15 A2968 RMK AO1 SLP052 T01500150





000
SAUS41 KCAR 020157
MTRGNR
METAR KGNR 020156Z AUTO 18005KT 15/15 A2968 RMK AO1 SLP052 T01500150





000
SAUS41 KCAR 020116
MTR40B
METAR K40B 020116Z AUTO VRB05KT 15/14 A2965 RMK AO1 SLP039
     T01490143 56014 P0001





000
SAUS41 KCAR 020116
MTR40B
METAR K40B 020116Z AUTO VRB05KT 15/14 A2965 RMK AO1 SLP039
     T01490143 56014 P0001





000
SAUS41 KCAR 020058
MTRGNR
METAR KGNR 020056Z AUTO VRB03KT 15/15 A2968 RMK AO1 SLP053 T01500150





000
SAUS41 KCAR 020020
MTR40B
METAR K40B 020020Z AUTO VRB03KT 15/14 A2966 RMK AO1 SLP040
     T01470139 10175 20147 57017 60031





000
SAUS41 KCAR 020020
MTR40B
METAR K40B 020020Z AUTO VRB03KT 15/14 A2966 RMK AO1 SLP040
     T01470139 10175 20147 57017 60031





000
SAUS41 KCAR 012357
MTRGNR
METAR KGNR 012356Z AUTO VRB03KT 15/15 A2968 RMK AO1 SLP051 60033
T01500150 10161 20139 56015





000
SAUS41 KCAR 012320
MTR40B
METAR K40B 012320Z AUTO VRB06G12KT 15/14 A2967 RMK AO1 SLP044
     T01490140 58019 P0010





000
SAUS41 KCAR 012258
MTRGNR
METAR KGNR 012256Z AUTO VRB03KT 14/14 A2969 RMK AO1 SLP054 T01440144





000
SAUS41 KCAR 012258
MTRGNR
METAR KGNR 012256Z AUTO VRB03KT 14/14 A2969 RMK AO1 SLP054 T01440144





000
SAUS41 KCAR 012216
MTR40B
METAR K40B 012216Z AUTO 13008G16KT 080V220 15/14 A2970 RMK AO1
     SLP053 T01510143 56021 P0014





000
SAUS41 KCAR 012157
MTRGNR
METAR KGNR 012156Z AUTO VRB04KT 14/14 A2971 RMK AO1 SLP061 P0011
T01440144





000
SAUS41 KCAR 012120
MTR40B
METAR K40B 012120Z AUTO 15008G13KT 100V200 16/15 A2971 RMK AO1
     SLP058 T01640150 58019 P0004 60007





000
SAUS41 KCAR 012057
MTRGNR
METAR KGNR 012056Z AUTO VRB03KT 14/14 A2973 RMK AO1 SLP067 P0019
60022 T01390139 56015





000
SAUS41 KCAR 012057
MTRGNR
METAR KGNR 012056Z AUTO VRB03KT 14/14 A2973 RMK AO1 SLP067 P0019
60022 T01390139 56015





000
SAUS41 KCAR 012020
MTR40B
METAR K40B 012020Z AUTO VRB05KT 17/16 A2973 RMK AO1 SLP064
     T01670158 58019 P0003





000
SAUS41 KCAR 011958
MTRGNR
METAR KGNR 011956Z AUTO VRB04KT 15/14 A2973 RMK AO1 SLP068 P0003
T01500144





000
SAUS41 KCAR 011958
MTRGNR
METAR KGNR 011956Z AUTO VRB04KT 15/14 A2973 RMK AO1 SLP068 P0003
T01500144





000
SAUS41 KCAR 011916
MTR40B
METAR K40B 011916Z AUTO VRB06KT 17/16 A2976 RMK AO1 SLP075
     T01730159 56023





000
SAUS41 KCAR 011857
MTRGNR
METAR KGNR 011856Z AUTO 14007KT 090V190 16/14 A2976 RMK AO1 SLP079
T01560144





000
SAUS41 KCAR 011857
MTRGNR
METAR KGNR 011856Z AUTO 14007KT 090V190 16/14 A2976 RMK AO1 SLP079
T01560144





000
SAUS41 KCAR 011820
MTR40B
METAR K40B 011820Z AUTO VRB03KT 17/15 A2977 RMK AO1 SLP078
     T01690150 10174 20157 56028 60012





000
SAUS41 KCAR 011758
MTRGNR
METAR KGNR 011756Z AUTO VRB04KT 16/16 A2977 RMK AO1 SLP082 60009
T01610156 10167 20150 56034





000
SAUS41 KCAR 011758
MTRGNR
METAR KGNR 011756Z AUTO VRB04KT 16/16 A2977 RMK AO1 SLP082 60009
T01610156 10167 20150 56034





000
SAUS41 KCAR 011720
MTR40B
METAR K40B 011720Z AUTO VRB05G13KT 17/15 A2979 RMK AO1 SLP085
     T01680148 58021





000
SAUS41 KCAR 011720
MTR40B
METAR K40B 011720Z AUTO VRB05G13KT 17/15 A2979 RMK AO1 SLP085
     T01680148 58021





000
SAUS41 KCAR 011657
MTRGNR
METAR KGNR 011656Z AUTO VRB05KT 17/16 A2979 RMK AO1 SLP086 T01670156





000
SAUS41 KCAR 011616
MTR40B
METAR K40B 011616Z AUTO VRB06G14KT 16/14 A2983 RMK AO1 SLP099
     T01580143 58010 P0004





000
SAUS41 KCAR 011558
MTRGNR
METAR KGNR 011556Z AUTO VRB05KT 16/16 A2984 RMK AO1 SLP105 P0003
T01560156





000
SAUS41 KCAR 011521
MTR40B
METAR K40B 011521Z AUTO VRB04G13KT 16/14 A2986 RMK AO1 SLP107
     T01630142 55008 P0005 60008





000
SAUS41 KCAR 011457
MTRGNR
METAR KGNR 011456Z AUTO 15/15 A2988 RMK AO1 SLP117 P0006 60006
T01500150 56005





000
SAUS41 KCAR 011420
MTR40B
METAR K40B 011420Z AUTO 00000KT 17/16 A2985 RMK AO1 SLP107
     T01680156 56013





000
SAUS41 KCAR 011357
MTRGNR
METAR KGNR 011356Z AUTO VRB03KT 15/14 A2989 RMK AO1 SLP121 T01500144





000
SAUS41 KCAR 011357
MTRGNR
METAR KGNR 011356Z AUTO VRB03KT 15/14 A2989 RMK AO1 SLP121 T01500144





000
SAUS41 KCAR 011316
MTR40B
METAR K40B 011316Z AUTO 00000KT 16/15 A2986 RMK AO1 SLP110
     T01620146 58013 P0003





000
SAUS41 KCAR 011316
MTR40B
METAR K40B 011316Z AUTO 00000KT 16/15 A2986 RMK AO1 SLP110
     T01620146 58013 P0003





000
SAUS41 KCAR 011257
MTRGNR
METAR KGNR 011256Z AUTO 13005KT 15/14 A2988 RMK AO1 SLP118 T01500139





000
SAUS41 KCAR 011257
MTRGNR
METAR KGNR 011256Z AUTO 13005KT 15/14 A2988 RMK AO1 SLP118 T01500139





000
SAUS41 KCAR 011220
MTR40B
METAR K40B 011220Z AUTO VRB04G11KT 17/14 A2988 RMK AO1 SLP115
     T01740140 10175 20148 58011 60001 70002





000
SAUS41 KCAR 011220
MTR40B
METAR K40B 011220Z AUTO VRB04G11KT 17/14 A2988 RMK AO1 SLP115
     T01740140 10175 20148 58011 60001 70002





000
SAUS41 KCAR 011158
MTRGNR
METAR KGNR 011156Z AUTO VRB03KT 16/15 A2989 RMK AO1 SLP122 60018
70023 T01560150 10161 20150 58005





000
SAUS41 KCAR 011158
MTRGNR
METAR KGNR 011156Z AUTO VRB03KT 16/15 A2989 RMK AO1 SLP122 60018
70023 T01560150 10161 20150 58005





000
SAUS41 KCAR 011120
MTR40B
METAR K40B 011120Z AUTO VRB03KT 17/15 A2989 RMK AO1 SLP120
     T01670154 56011 P0000





000
SAUS41 KCAR 011120
MTR40B
METAR K40B 011120Z AUTO VRB03KT 17/15 A2989 RMK AO1 SLP120
     T01670154 56011 P0000





000
SAUS41 KCAR 011057
MTRGNR
METAR KGNR 011056Z AUTO 12004KT 15/15 A2989 RMK AO1 SLP121 T01500150





000
SAUS41 KCAR 011016
MTR40B
METAR K40B 011016Z AUTO VRB02KT 16/15 A2990 RMK AO1 SLP122
     T01570150 58009





000
SAUS41 KCAR 011016
MTR40B
METAR K40B 011016Z AUTO VRB02KT 16/15 A2990 RMK AO1 SLP122
     T01570150 58009





000
SAUS41 KCAR 010958
MTRGNR
METAR KGNR 010956Z AUTO 13003KT 15/14 A2991 RMK AO1 SLP128 T01500144





000
SAUS41 KCAR 010920
MTR40B
METAR K40B 010920Z AUTO 00000KT 15/14 A2991 RMK AO1 SLP124
     T01490143 58010 60001





000
SAUS41 KCAR 010857
MTRGNR
METAR KGNR 010856Z AUTO 13004KT 15/14 A2991 RMK AO1 SLP127 60018
T01500144 58017





000
SAUS41 KCAR 010857
MTRGNR
METAR KGNR 010856Z AUTO 13004KT 15/14 A2991 RMK AO1 SLP127 60018
T01500144 58017





000
SAUS41 KCAR 010820
MTR40B
METAR K40B 010820Z AUTO 00000KT 15/15 A2993 RMK AO1 SLP129
     T01520147 57005 P0000





000
SAUS41 KCAR 010757
MTRGNR
METAR KGNR 010756Z AUTO 07004KT 15/15 A2993 RMK AO1 SLP132 P0010
T01500150





000
SAUS41 KCAR 010716
MTR40B
METAR K40B 010716Z AUTO 00000KT 15/15 A2993 RMK AO1 SLP128
     T01550146 57005 P0001





000
SAUS41 KCAR 010657
MTRGNR
METAR KGNR 010656Z AUTO VRB03KT 16/16 A2995 RMK AO1 SLP140 P0008
T01560156





000
SAUS41 KCAR 010657
MTRGNR
METAR KGNR 010656Z AUTO VRB03KT 16/16 A2995 RMK AO1 SLP140 P0008
T01560156





000
SAUS41 KCAR 010557
MTRGNR
METAR KGNR 010556Z AUTO 18003KT 16/16 A2996 RMK AO1 SLP144 P0003
60005 T01610156 10194 20161 58002





000
SAUS41 KCAR 010557
MTRGNR
METAR KGNR 010556Z AUTO 18003KT 16/16 A2996 RMK AO1 SLP144 P0003
60005 T01610156 10194 20161 58002





000
SAUS41 KCAR 010520
MTR40B
METAR K40B 010520Z AUTO VRB02KT 15/14 A2995 RMK AO1 SLP132
     T01550139 402510127 54000





000
SAUS41 KCAR 010520
MTR40B
METAR K40B 010520Z AUTO VRB02KT 15/14 A2995 RMK AO1 SLP132
     T01550139 402510127 54000





000
SAUS41 KCAR 010458
MTRGNR
METAR KGNR 010456Z AUTO 00000KT 17/16 A2997 RMK AO1 SLP147 P0002
T01670156 402390106





000
SAUS41 KCAR 010416
MTR40B
METAR K40B 010416Z AUTO VRB02KT 17/13 A2994 RMK AO1 SLP131
     T01670134 52002





000
SAUS41 KCAR 010357
MTRGNR
METAR KGNR 010356Z AUTO 00000KT 17/15 A2997 RMK AO1 SLP147 T01720150





000
SAUS41 KCAR 010320
MTR40B
METAR K40B 010320Z AUTO 00000KT 16/14 A2995 RMK AO1 SLP131
     T01640137 51008





000
SAUS41 KCAR 010258
MTRGNR
METAR KGNR 010256Z AUTO VRB03KT 18/14 A2997 RMK AO1 SLP147 T01780139
51009





000
SAUS41 KCAR 010258
MTRGNR
METAR KGNR 010256Z AUTO VRB03KT 18/14 A2997 RMK AO1 SLP147 T01780139
51009





000
SAUS41 KCAR 010220
MTR40B
METAR K40B 010220Z AUTO 00000KT 17/14 A2995 RMK AO1 SLP131
     T01670138 52008





000
SAUS41 KCAR 010157
MTRGNR
METAR KGNR 010156Z AUTO 18003KT 19/13 A2997 RMK AO1 SLP147 T01890133





000
SAUS41 KCAR 010116
MTR40B
METAR K40B 010116Z AUTO 00000KT 18/14 A2994 RMK AO1 SLP128
     T01770143 53007





000
SAUS41 KCAR 010058
MTRGNR
METAR KGNR 010056Z AUTO 00000KT 19/14 A2995 RMK AO1 SLP141 T01940139





000
SAUS41 KCAR 010058
MTRGNR
METAR KGNR 010056Z AUTO 00000KT 19/14 A2995 RMK AO1 SLP141 T01940139





000
SAUS41 KCAR 010020
MTR40B
METAR K40B 010020Z AUTO VRB04KT 20/15 A2992 RMK AO1 SLP122
     T01960148 10251 20197 54001





000
SAUS41 KCAR 302357
MTRGNR
METAR KGNR 302356Z AUTO 00000KT 20/15 A2994 RMK AO1 SLP139 T02000150
10239 20200 58000





000
SAUS41 KCAR 302357
MTRGNR
METAR KGNR 302356Z AUTO 00000KT 20/15 A2994 RMK AO1 SLP139 T02000150
10239 20200 58000





000
SAUS41 KCAR 302320
MTR40B
METAR K40B 302320Z AUTO VRB04KT 21/16 A2992 RMK AO1 SLP123
     T02120155 57002





000
SAUS41 KCAR 302320
MTR40B
METAR K40B 302320Z AUTO VRB04KT 21/16 A2992 RMK AO1 SLP123
     T02120155 57002





000
SAUS41 KCAR 302258
MTRGNR
METAR KGNR 302256Z AUTO 00000KT 21/15 A2995 RMK AO1 SLP141 T02110150





000
SAUS41 KCAR 302258
MTRGNR
METAR KGNR 302256Z AUTO 00000KT 21/15 A2995 RMK AO1 SLP141 T02110150





000
SAUS41 KCAR 302216
MTR40B
METAR K40B 302216Z AUTO VRB04KT 24/10 A2992 RMK AO1 SLP123
     T02360104 57004





000
SAUS41 KCAR 302157
MTRGNR
METAR KGNR 302156Z AUTO 00000KT 22/15 A2994 RMK AO1 SLP139 T02170150





000
SAUS41 KCAR 302120
MTR40B
METAR K40B 302120Z AUTO 00000KT 25/10 A2992 RMK AO1 SLP124
     T02470102 57004





000
SAUS41 KCAR 302057
MTRGNR
METAR KGNR 302056Z AUTO VRB03KT 23/14 A2994 RMK AO1 SLP139 T02280139
57005





000
SAUS41 KCAR 302020
MTR40B
METAR K40B 302020Z AUTO VRB02KT 25/10 A2993 RMK AO1 SLP128
     T02460103 57004





000
SAUS41 KCAR 301957
MTRGNR
METAR KGNR 301956Z AUTO VRB03KT 23/13 A2995 RMK AO1 SLP140 T02330128





000
SAUS41 KCAR 301916
MTR40B
METAR K40B 301916Z AUTO VRB02KT 24/08 A2993 RMK AO1 SLP131
     T02440083 57004





000
SAUS41 KCAR 301858
MTRGNR
METAR KGNR 301856Z AUTO VRB03KT 23/12 A2995 RMK AO1 SLP143 T02330122





000
SAUS41 KCAR 301820
MTR40B
METAR K40B 301820Z AUTO 00000KT 23/11 A2993 RMK AO1 SLP132
     T02340109 10238 20153 57006





000
SAUS41 KCAR 301757
MTRGNR
METAR KGNR 301756Z AUTO VRB04KT 22/13 A2996 RMK AO1 SLP145 T02220133
10228 20144 58003





000
SAUS41 KCAR 301757
MTRGNR
METAR KGNR 301756Z AUTO VRB04KT 22/13 A2996 RMK AO1 SLP145 T02220133
10228 20144 58003





    US Dept of Commerce
    National Oceanic and Atmospheric Administration
    National Weather Service
    1325 East West Highway
    Silver Spring, MD 20910
    Page Author: NWS Internet Services Team
Disclaimer
Information Quality
Credits
Glossary
Privacy Policy
Freedom of Information Act (FOIA)
About Us
Career Opportunities